Station Historical Data
Daily Summary for July 26, 2017 Units:  English    Metric   Both
« Previous Day
Next Day »
Daily Weekly Monthly Yearly Custom
  High: Low: Average:
Temperature: 77.7 °F 53.3 °F 66.2 °F
Dew Point: 64.5 °F 51.0 °F 57.7 °F
Humidity: 92% 60% 75%
Wind Speed: 7.0mph 0.0mph 1.6mph
Wind Gust: 11.0mph - -
Wind- - WSW
Pressure: 30.23 in 29.99 in -
Precipitation: 0.00 in    
Historical Graphs
 
 
Tabular Data for July 26, 2017
Time Temperature Dew Point Pressure Wind Wind Speed Wind Gust Humidity Rainfall Rate (Hourly)
00:00 58.3 °F 54.4 °F 30.23 in Calm     87% 0.00 in
00:05 58.2 °F 54.3 °F 30.23 in Calm     87% 0.00 in
00:10 58.0 °F 54.2 °F 30.22 in Calm     87% 0.00 in
00:15 57.9 °F 54.4 °F 30.22 in Calm     88% 0.00 in
00:20 58.1 °F 54.6 °F 30.22 in Calm     88% 0.00 in
00:25 58.5 °F 55.0 °F 30.22 in Calm     88% 0.00 in
00:30 58.6 °F 55.1 °F 30.22 in Calm     88% 0.00 in
00:35 58.3 °F 54.8 °F 30.22 in Calm     88% 0.00 in
00:40 58.3 °F 54.8 °F 30.22 in Calm     88% 0.00 in
00:45 58.2 °F 54.7 °F 30.22 in Calm     88% 0.00 in
00:50 58.2 °F 54.7 °F 30.22 in Calm     88% 0.00 in
00:55 58.0 °F 54.5 °F 30.22 in Calm     88% 0.00 in
01:00 57.9 °F 54.7 °F 30.22 in Calm     89% 0.00 in
01:05 57.9 °F 54.7 °F 30.22 in Calm     89% 0.00 in
01:10 57.8 °F 54.6 °F 30.22 in Calm     89% 0.00 in
01:15 57.6 °F 54.4 °F 30.22 in Calm     89% 0.00 in
01:20 57.3 °F 54.1 °F 30.22 in Calm     89% 0.00 in
01:25 57.0 °F 53.8 °F 30.21 in Calm     89% 0.00 in
01:30 57.0 °F 54.1 °F 30.21 in Calm     90% 0.00 in
01:35 56.8 °F 53.9 °F 30.21 in Calm     90% 0.00 in
01:40 56.6 °F 53.7 °F 30.22 in Calm     90% 0.00 in
01:45 56.4 °F 53.5 °F 30.22 in Calm     90% 0.00 in
01:50 56.2 °F 53.3 °F 30.22 in Calm     90% 0.00 in
01:55 56.0 °F 53.1 °F 30.22 in Calm     90% 0.00 in
02:00 56.2 °F 53.6 °F 30.22 in Calm     91% 0.00 in
02:05 56.3 °F 53.7 °F 30.22 in Calm     91% 0.00 in
02:10 56.4 °F 53.8 °F 30.21 in Calm     91% 0.00 in
02:15 56.4 °F 53.8 °F 30.21 in Calm     91% 0.00 in
02:20 56.3 °F 53.7 °F 30.21 in Calm     91% 0.00 in
02:25 56.1 °F 53.5 °F 30.21 in Calm     91% 0.00 in
02:30 56.0 °F 53.4 °F 30.21 in Calm     91% 0.00 in
02:35 55.7 °F 53.1 °F 30.21 in Calm     91% 0.00 in
02:40 55.9 °F 53.3 °F 30.21 in Calm     91% 0.00 in
02:45 55.8 °F 53.2 °F 30.21 in Calm     91% 0.00 in
02:50 55.8 °F 53.2 °F 30.21 in Calm     91% 0.00 in
02:55 55.7 °F 53.1 °F 30.20 in Calm     91% 0.00 in
03:00 55.7 °F 53.1 °F 30.20 in Calm     91% 0.00 in
03:05 55.7 °F 53.1 °F 30.20 in Calm     91% 0.00 in
03:10 55.5 °F 52.9 °F 30.20 in Calm     91% 0.00 in
03:15 55.4 °F 52.8 °F 30.20 in Calm     91% 0.00 in
03:20 55.4 °F 52.8 °F 30.20 in Calm     91% 0.00 in
03:25 55.2 °F 52.6 °F 30.20 in Calm     91% 0.00 in
03:30 55.1 °F 52.5 °F 30.20 in Calm     91% 0.00 in
03:35 54.8 °F 52.2 °F 30.20 in Calm     91% 0.00 in
03:40 54.7 °F 52.1 °F 30.20 in Calm     91% 0.00 in
03:45 54.5 °F 51.9 °F 30.20 in Calm     91% 0.00 in
03:50 54.5 °F 51.9 °F 30.20 in Calm     91% 0.00 in
03:55 54.4 °F 52.1 °F 30.20 in Calm     92% 0.00 in
04:00 54.3 °F 51.7 °F 30.20 in Calm     91% 0.00 in
04:05 54.4 °F 51.8 °F 30.20 in Calm     91% 0.00 in
04:10 54.3 °F 51.7 °F 30.20 in Calm     91% 0.00 in
04:15 54.2 °F 51.9 °F 30.20 in Calm     92% 0.00 in
04:20 54.3 °F 52.0 °F 30.20 in Calm     92% 0.00 in
04:25 54.2 °F 51.9 °F 30.21 in Calm     92% 0.00 in
04:30 54.1 °F 51.8 °F 30.20 in Calm     92% 0.00 in
04:35 54.1 °F 51.8 °F 30.21 in Calm     92% 0.00 in
04:40 54.1 °F 51.8 °F 30.20 in Calm     92% 0.00 in
04:45 54.1 °F 51.8 °F 30.21 in Calm     92% 0.00 in
04:50 54.1 °F 51.8 °F 30.21 in Calm     92% 0.00 in
04:55 54.1 °F 51.8 °F 30.20 in Calm     92% 0.00 in
05:00 54.1 °F 51.8 °F 30.20 in Calm     92% 0.00 in
05:05 54.1 °F 51.8 °F 30.20 in Calm     92% 0.00 in
05:10 54.0 °F 51.7 °F 30.20 in Calm     92% 0.00 in
05:15 54.1 °F 51.8 °F 30.21 in Calm     92% 0.00 in
05:20 53.9 °F 51.6 °F 30.21 in Calm     92% 0.00 in
05:25 53.7 °F 51.4 °F 30.21 in Calm     92% 0.00 in
05:30 53.4 °F 51.1 °F 30.21 in Calm     92% 0.00 in
05:35 53.6 °F 51.3 °F 30.21 in Calm     92% 0.00 in
05:40 53.6 °F 51.3 °F 30.21 in Calm     92% 0.00 in
05:45 53.5 °F 51.2 °F 30.22 in Calm     92% 0.00 in
05:50 53.5 °F 51.2 °F 30.21 in Calm     92% 0.00 in
05:55 53.5 °F 51.2 °F 30.21 in Calm     92% 0.00 in
06:00 53.4 °F 51.1 °F 30.21 in Calm     92% 0.00 in
06:05 53.4 °F 51.1 °F 30.22 in Calm     92% 0.00 in
06:10 53.3 °F 51.0 °F 30.22 in Calm     92% 0.00 in
06:15 53.3 °F 51.0 °F 30.23 in Calm     92% 0.00 in
06:20 53.3 °F 51.0 °F 30.22 in Calm     92% 0.00 in
06:25 53.4 °F 51.1 °F 30.22 in Calm     92% 0.00 in
06:30 53.6 °F 51.3 °F 30.22 in Calm     92% 0.00 in
06:35 53.7 °F 51.4 °F 30.21 in Calm     92% 0.00 in
06:40 53.8 °F 51.5 °F 30.21 in Calm     92% 0.00 in
06:45 54.0 °F 51.7 °F 30.22 in Calm     92% 0.00 in
06:50 54.2 °F 51.9 °F 30.22 in Calm     92% 0.00 in
06:55 54.5 °F 52.2 °F 30.22 in Calm     92% 0.00 in
07:00 54.8 °F 52.2 °F 30.21 in Calm     91% 0.00 in
07:05 55.1 °F 52.5 °F 30.21 in Calm     91% 0.00 in
07:10 55.3 °F 52.7 °F 30.21 in Calm     91% 0.00 in
07:15 55.7 °F 52.8 °F 30.20 in Calm   3.0 mph 90% 0.00 in
07:20 56.2 °F 53.3 °F 30.20 in ESE 1.0 mph 3.0 mph 90% 0.00 in
07:25 56.6 °F 53.4 °F 30.20 in SSE 3.0 mph 5.0 mph 89% 0.00 in
07:30 56.8 °F 53.3 °F 30.20 in Calm   4.0 mph 88% 0.00 in
07:35 57.1 °F 53.6 °F 30.20 in SSE 1.0 mph 4.0 mph 88% 0.00 in
07:40 57.3 °F 53.5 °F 30.19 in ESE 2.0 mph 5.0 mph 87% 0.00 in
07:45 57.6 °F 53.8 °F 30.20 in SE 1.0 mph 4.0 mph 87% 0.00 in
07:50 58.0 °F 53.8 °F 30.20 in East 2.0 mph 3.0 mph 86% 0.00 in
07:55 58.2 °F 54.0 °F 30.21 in Calm   3.0 mph 86% 0.00 in
08:00 58.7 °F 54.2 °F 30.20 in SE 1.0 mph 2.0 mph 85% 0.00 in
08:05 59.1 °F 54.6 °F 30.20 in Calm   2.0 mph 85% 0.00 in
08:10 59.6 °F 55.1 °F 30.20 in Calm   2.0 mph 85% 0.00 in
08:15 59.9 °F 54.7 °F 30.20 in ENE 1.0 mph 3.0 mph 83% 0.00 in
08:20 60.3 °F 55.1 °F 30.20 in Calm   3.0 mph 83% 0.00 in
08:25 60.9 °F 55.0 °F 30.20 in SSE 3.0 mph 4.0 mph 81% 0.00 in
08:30 61.3 °F 55.1 °F 30.20 in East 1.0 mph 3.0 mph 80% 0.00 in
08:35 61.5 °F 55.6 °F 30.20 in ESE 1.0 mph 3.0 mph 81% 0.00 in
08:40 62.4 °F 56.5 °F 30.20 in ESE 1.0 mph 3.0 mph 81% 0.00 in
08:45 63.0 °F 56.0 °F 30.20 in SE 1.0 mph 3.0 mph 78% 0.00 in
08:50 63.2 °F 55.9 °F 30.20 in Calm   2.0 mph 77% 0.00 in
08:55 63.9 °F 56.5 °F 30.20 in Calm   2.0 mph 77% 0.00 in
09:00 64.4 °F 56.7 °F 30.20 in WSW 3.0 mph 3.0 mph 76% 0.00 in
09:05 64.0 °F 55.9 °F 30.19 in SW 1.0 mph 3.0 mph 75% 0.00 in
09:10 64.1 °F 56.0 °F 30.19 in WSW 1.0 mph 3.0 mph 75% 0.00 in
09:15 65.1 °F 57.0 °F 30.19 in Calm   3.0 mph 75% 0.00 in
09:20 65.8 °F 56.9 °F 30.19 in SW 1.0 mph 3.0 mph 73% 0.00 in
09:25 65.6 °F 55.9 °F 30.18 in WNW 1.0 mph 3.0 mph 71% 0.00 in
09:30 66.3 °F 56.6 °F 30.19 in West 1.0 mph 4.0 mph 71% 0.00 in
09:35 67.3 °F 56.8 °F 30.19 in West 2.0 mph 4.0 mph 69% 0.00 in
09:40 67.4 °F 56.9 °F 30.19 in West 1.0 mph 4.0 mph 69% 0.00 in
09:45 67.2 °F 56.3 °F 30.18 in SSW 1.0 mph 4.0 mph 68% 0.00 in
09:50 66.7 °F 56.6 °F 30.17 in SSE 1.0 mph 4.0 mph 70% 0.00 in
09:55 67.1 °F 56.2 °F 30.17 in SSE 2.0 mph 4.0 mph 68% 0.00 in
10:00 68.5 °F 58.3 °F 30.17 in South 2.0 mph 4.0 mph 70% 0.00 in
10:05 68.5 °F 56.7 °F 30.17 in Calm   6.0 mph 66% 0.00 in
10:10 68.4 °F 57.4 °F 30.17 in SW 2.0 mph 5.0 mph 68% 0.00 in
10:15 68.8 °F 57.8 °F 30.17 in SW 4.0 mph 4.0 mph 68% 0.00 in
10:20 69.2 °F 58.2 °F 30.17 in WSW 3.0 mph 5.0 mph 68% 0.00 in
10:25 69.2 °F 57.8 °F 30.17 in SSW 5.0 mph 5.0 mph 67% 0.00 in
10:30 69.3 °F 57.5 °F 30.17 in WSW 3.0 mph 5.0 mph 66% 0.00 in
10:35 69.7 °F 57.4 °F 30.17 in SSW 3.0 mph 6.0 mph 65% 0.00 in
10:40 69.5 °F 57.2 °F 30.17 in SSW 2.0 mph 6.0 mph 65% 0.00 in
10:45 70.1 °F 58.2 °F 30.17 in SW 2.0 mph 6.0 mph 66% 0.00 in
10:50 70.3 °F 58.4 °F 30.18 in ESE 1.0 mph 6.0 mph 66% 0.00 in
10:55 70.7 °F 58.4 °F 30.18 in West 4.0 mph 6.0 mph 65% 0.00 in
11:00 70.6 °F 57.4 °F 30.18 in SW 3.0 mph 8.0 mph 63% 0.00 in
11:05 70.8 °F 57.6 °F 30.18 in WSW 4.0 mph 8.0 mph 63% 0.00 in
11:10 70.6 °F 57.4 °F 30.18 in West 4.0 mph 9.0 mph 63% 0.00 in
11:15 70.3 °F 57.1 °F 30.18 in WSW 4.0 mph 9.0 mph 63% 0.00 in
11:20 70.8 °F 57.1 °F 30.18 in SW 4.0 mph 11.0 mph 62% 0.00 in
11:25 70.7 °F 57.5 °F 30.17 in WSW 4.0 mph 11.0 mph 63% 0.00 in
11:30 70.8 °F 58.0 °F 30.17 in WNW 2.0 mph 7.0 mph 64% 0.00 in
11:35 70.7 °F 57.9 °F 30.17 in WSW 4.0 mph 7.0 mph 64% 0.00 in
11:40 70.7 °F 57.9 °F 30.17 in SW 4.0 mph 6.0 mph 64% 0.00 in
11:45 70.6 °F 57.4 °F 30.17 in SW 1.0 mph 8.0 mph 63% 0.00 in
11:50 71.2 °F 58.0 °F 30.16 in WSW 4.0 mph 8.0 mph 63% 0.00 in
11:55 71.0 °F 58.2 °F 30.16 in NNW 2.0 mph 6.0 mph 64% 0.00 in
12:00 71.2 °F 58.8 °F 30.16 in WNW 4.0 mph 9.0 mph 65% 0.00 in
12:05 71.2 °F 58.4 °F 30.16 in West 4.0 mph 9.0 mph 64% 0.00 in
12:10 70.9 °F 58.1 °F 30.15 in West 4.0 mph 10.0 mph 64% 0.00 in
12:15 71.0 °F 58.6 °F 30.15 in West 4.0 mph 10.0 mph 65% 0.00 in
12:20 70.8 °F 57.1 °F 30.15 in WSW 3.0 mph 6.0 mph 62% 0.00 in
12:25 70.6 °F 57.8 °F 30.15 in West 2.0 mph 5.0 mph 64% 0.00 in
12:30 71.3 °F 58.5 °F 30.15 in WNW 1.0 mph 6.0 mph 64% 0.00 in
12:35 71.0 °F 57.8 °F 30.15 in West 3.0 mph 7.0 mph 63% 0.00 in
12:40 71.4 °F 58.1 °F 30.15 in SW 2.0 mph 7.0 mph 63% 0.00 in
12:45 71.6 °F 57.4 °F 30.15 in SSW 3.0 mph 7.0 mph 61% 0.00 in
12:50 71.8 °F 59.0 °F 30.15 in WSW 3.0 mph 8.0 mph 64% 0.00 in
12:55 72.1 °F 57.4 °F 30.15 in West 4.0 mph 7.0 mph 60% 0.00 in
13:00 72.6 °F 58.8 °F 30.15 in WSW 3.0 mph 7.0 mph 62% 0.00 in
13:05 72.1 °F 58.8 °F 30.15 in WSW 3.0 mph 6.0 mph 63% 0.00 in
13:10 72.8 °F 59.5 °F 30.15 in West 3.0 mph 6.0 mph 63% 0.00 in
13:15 73.1 °F 59.8 °F 30.14 in West 1.0 mph 6.0 mph 63% 0.00 in
13:20 73.4 °F 59.1 °F 30.14 in WSW 3.0 mph 7.0 mph 61% 0.00 in
13:25 73.5 °F 58.8 °F 30.14 in SSW 4.0 mph 10.0 mph 60% 0.00 in
13:30 73.2 °F 59.4 °F 30.14 in WSW 7.0 mph 10.0 mph 62% 0.00 in
13:35 73.6 °F 60.2 °F 30.14 in WNW 2.0 mph 7.0 mph 63% 0.00 in
13:40 73.8 °F 61.3 °F 30.13 in WSW 4.0 mph 9.0 mph 65% 0.00 in
13:45 74.1 °F 59.8 °F 30.13 in WSW 4.0 mph 9.0 mph 61% 0.00 in
13:50 73.7 °F 60.3 °F 30.12 in WSW 4.0 mph 6.0 mph 63% 0.00 in
13:55 73.7 °F 60.3 °F 30.11 in WSW 5.0 mph 6.0 mph 63% 0.00 in
14:00 73.5 °F 60.6 °F 30.11 in SW 2.0 mph 8.0 mph 64% 0.00 in
14:05 74.6 °F 60.7 °F 30.11 in SSW 5.0 mph 8.0 mph 62% 0.00 in
14:10 74.5 °F 61.5 °F 30.10 in SSW 6.0 mph 8.0 mph 64% 0.00 in
14:15 75.6 °F 61.7 °F 30.10 in SSE 1.0 mph 6.0 mph 62% 0.00 in
14:20 76.1 °F 62.6 °F 30.09 in SSW 3.0 mph 5.0 mph 63% 0.00 in
14:25 76.2 °F 61.8 °F 30.09 in West 1.0 mph 7.0 mph 61% 0.00 in
14:30 76.4 °F 62.4 °F 30.09 in South 3.0 mph 8.0 mph 62% 0.00 in
14:35 76.7 °F 62.7 °F 30.09 in South 3.0 mph 8.0 mph 62% 0.00 in
14:40 77.0 °F 63.4 °F 30.08 in SSW 4.0 mph 10.0 mph 63% 0.00 in
14:45 76.9 °F 62.4 °F 30.08 in SW 7.0 mph 8.0 mph 61% 0.00 in
14:50 77.0 °F 62.5 °F 30.08 in SW 3.0 mph 10.0 mph 61% 0.00 in
14:55 77.2 °F 62.7 °F 30.08 in South 2.0 mph 7.0 mph 61% 0.00 in
15:00 76.5 °F 62.0 °F 30.07 in SSW 3.0 mph 7.0 mph 61% 0.00 in
15:05 76.2 °F 61.8 °F 30.08 in WSW 4.0 mph 6.0 mph 61% 0.00 in
15:10 77.7 °F 64.5 °F 30.07 in SSE 4.0 mph 6.0 mph 64% 0.00 in
15:15 77.3 °F 62.3 °F 30.07 in SW 4.0 mph 7.0 mph 60% 0.00 in
15:20 76.0 °F 61.6 °F 30.07 in West 1.0 mph 7.0 mph 61% 0.00 in
15:25 75.7 °F 61.3 °F 30.07 in WSW 3.0 mph 7.0 mph 61% 0.00 in
15:30 75.6 °F 61.7 °F 30.07 in WSW 3.0 mph 7.0 mph 62% 0.00 in
15:35 75.4 °F 61.9 °F 30.07 in WSW 3.0 mph 7.0 mph 63% 0.00 in
15:40 75.3 °F 61.8 °F 30.07 in WSW 2.0 mph 6.0 mph 63% 0.00 in
15:45 75.5 °F 62.9 °F 30.06 in West 1.0 mph 6.0 mph 65% 0.00 in
15:50 75.7 °F 63.1 °F 30.06 in WSW 2.0 mph 6.0 mph 65% 0.00 in
15:55 75.6 °F 62.1 °F 30.07 in WSW 3.0 mph 6.0 mph 63% 0.00 in
16:00 76.0 °F 62.0 °F 30.06 in West 3.0 mph 7.0 mph 62% 0.00 in
16:05 76.1 °F 63.0 °F 30.06 in West 3.0 mph 7.0 mph 64% 0.00 in
16:10 76.3 °F 62.8 °F 30.06 in Calm   5.0 mph 63% 0.00 in
16:15 76.2 °F 62.2 °F 30.06 in NNW 2.0 mph 5.0 mph 62% 0.00 in
16:20 76.6 °F 63.5 °F 30.06 in West 2.0 mph 5.0 mph 64% 0.00 in
16:25 76.3 °F 62.3 °F 30.06 in West 2.0 mph 5.0 mph 62% 0.00 in
16:30 76.7 °F 62.2 °F 30.06 in West 3.0 mph 8.0 mph 61% 0.00 in
16:35 76.5 °F 63.0 °F 30.06 in WSW 3.0 mph 8.0 mph 63% 0.00 in
16:40 76.7 °F 63.2 °F 30.06 in NW 5.0 mph 7.0 mph 63% 0.00 in
16:45 76.0 °F 62.5 °F 30.06 in NW 4.0 mph 5.0 mph 63% 0.00 in
16:50 75.9 °F 62.8 °F 30.05 in Calm   6.0 mph 64% 0.00 in
16:55 76.2 °F 63.6 °F 30.05 in WNW 2.0 mph 6.0 mph 65% 0.00 in
17:00 75.5 °F 62.9 °F 30.05 in West 2.0 mph 6.0 mph 65% 0.00 in
17:05 75.5 °F 62.9 °F 30.05 in West 2.0 mph 6.0 mph 65% 0.00 in
17:10 75.2 °F 63.1 °F 30.05 in WNW 2.0 mph 5.0 mph 66% 0.00 in
17:15 75.3 °F 62.7 °F 30.05 in WNW 3.0 mph 6.0 mph 65% 0.00 in
17:20 75.1 °F 62.5 °F 30.05 in WNW 4.0 mph 7.0 mph 65% 0.00 in
17:25 75.2 °F 63.5 °F 30.05 in West 1.0 mph 6.0 mph 67% 0.00 in
17:30 75.0 °F 62.4 °F 30.05 in NNW 1.0 mph 5.0 mph 65% 0.00 in
17:35 75.1 °F 63.4 °F 30.05 in WNW 3.0 mph 6.0 mph 67% 0.00 in
17:40 75.0 °F 62.9 °F 30.05 in West 3.0 mph 6.0 mph 66% 0.00 in
17:45 74.9 °F 62.8 °F 30.05 in WNW 5.0 mph 7.0 mph 66% 0.00 in
17:50 74.6 °F 62.9 °F 30.05 in WNW 1.0 mph 6.0 mph 67% 0.00 in
17:55 74.7 °F 63.4 °F 30.05 in WNW 3.0 mph 7.0 mph 68% 0.00 in
18:00 74.7 °F 63.0 °F 30.05 in West 1.0 mph 5.0 mph 67% 0.00 in
18:05 74.7 °F 63.0 °F 30.05 in West 2.0 mph 5.0 mph 67% 0.00 in
18:10 74.6 °F 63.3 °F 30.05 in West 2.0 mph 5.0 mph 68% 0.00 in
18:15 74.4 °F 63.6 °F 30.05 in West 4.0 mph 5.0 mph 69% 0.00 in
18:20 74.4 °F 63.1 °F 30.05 in West 5.0 mph 6.0 mph 68% 0.00 in
18:25 74.2 °F 63.0 °F 30.05 in WNW 4.0 mph 8.0 mph 68% 0.00 in
18:30 74.0 °F 62.8 °F 30.06 in WNW 3.0 mph 8.0 mph 68% 0.00 in
18:35 73.9 °F 63.1 °F 30.06 in WNW 3.0 mph 6.0 mph 69% 0.00 in
18:40 73.8 °F 63.0 °F 30.06 in WNW 3.0 mph 6.0 mph 69% 0.00 in
18:45 73.7 °F 62.5 °F 30.06 in West 3.0 mph 6.0 mph 68% 0.00 in
18:50 73.6 °F 62.4 °F 30.06 in WNW 5.0 mph 7.0 mph 68% 0.00 in
18:55 73.5 °F 62.3 °F 30.06 in WNW 4.0 mph 9.0 mph 68% 0.00 in
19:00 73.4 °F 62.2 °F 30.06 in WNW 5.0 mph 7.0 mph 68% 0.00 in
19:05 73.3 °F 62.1 °F 30.07 in WNW 3.0 mph 6.0 mph 68% 0.00 in
19:10 73.3 °F 61.7 °F 30.07 in West 3.0 mph 8.0 mph 67% 0.00 in
19:15 73.2 °F 61.6 °F 30.07 in WNW 4.0 mph 6.0 mph 67% 0.00 in
19:20 73.1 °F 61.5 °F 30.07 in WNW 5.0 mph 6.0 mph 67% 0.00 in
19:25 73.0 °F 61.4 °F 30.07 in West 3.0 mph 7.0 mph 67% 0.00 in
19:30 73.1 °F 61.1 °F 30.07 in West 3.0 mph 7.0 mph 66% 0.00 in
19:35 73.3 °F 61.7 °F 30.07 in West 2.0 mph 5.0 mph 67% 0.00 in
19:40 73.2 °F 60.7 °F 30.06 in West 2.0 mph 6.0 mph 65% 0.00 in
19:45 73.0 °F 60.5 °F 30.06 in WNW 1.0 mph 6.0 mph 65% 0.00 in
19:50 72.8 °F 60.3 °F 30.06 in Calm   4.0 mph 65% 0.00 in
19:55 72.8 °F 59.9 °F 30.06 in West 1.0 mph 4.0 mph 64% 0.00 in
20:05 72.4 °F 60.0 °F 30.06 in WNW 2.0 mph 3.0 mph 65% 0.00 in
20:10 72.2 °F 59.8 °F 30.07 in West 2.0 mph 5.0 mph 65% 0.00 in
20:15 72.2 °F 59.3 °F 30.07 in WSW 4.0 mph 5.0 mph 64% 0.00 in
20:20 72.2 °F 59.3 °F 30.07 in West 2.0 mph 5.0 mph 64% 0.00 in
20:25 72.1 °F 59.2 °F 30.07 in West 2.0 mph 5.0 mph 64% 0.00 in
20:30 72.1 °F 59.2 °F 30.06 in West 2.0 mph 5.0 mph 64% 0.00 in
20:35 71.9 °F 59.1 °F 30.06 in West 2.0 mph 5.0 mph 64% 0.00 in
20:40 71.9 °F 59.1 °F 30.06 in West 2.0 mph 4.0 mph 64% 0.00 in
20:45 71.8 °F 59.0 °F 30.06 in West 2.0 mph 4.0 mph 64% 0.00 in
20:50 71.5 °F 58.7 °F 30.06 in West 2.0 mph 3.0 mph 64% 0.00 in
20:55 71.5 °F 58.7 °F 30.05 in SW 2.0 mph 4.0 mph 64% 0.00 in
21:00 71.3 °F 58.9 °F 30.05 in Calm   3.0 mph 65% 0.00 in
21:05 71.2 °F 59.3 °F 30.05 in Calm   2.0 mph 66% 0.00 in
21:10 71.1 °F 58.7 °F 30.04 in SW 1.0 mph 3.0 mph 65% 0.00 in
21:15 71.0 °F 59.1 °F 30.03 in South 3.0 mph 5.0 mph 66% 0.00 in
21:20 71.2 °F 60.5 °F 30.04 in Calm   6.0 mph 69% 0.00 in
21:25 71.3 °F 61.4 °F 30.04 in South 2.0 mph 6.0 mph 71% 0.00 in
21:30 71.2 °F 61.7 °F 30.04 in South 1.0 mph 3.0 mph 72% 0.00 in
21:35 71.0 °F 62.3 °F 30.03 in SSW 1.0 mph 7.0 mph 74% 0.00 in
21:40 70.8 °F 62.5 °F 30.03 in South 2.0 mph 7.0 mph 75% 0.00 in
21:45 70.8 °F 62.9 °F 30.03 in South 2.0 mph 5.0 mph 76% 0.00 in
21:50 70.7 °F 62.8 °F 30.02 in South 2.0 mph 7.0 mph 76% 0.00 in
22:00 70.5 °F 62.6 °F 30.00 in SE 5.0 mph 11.0 mph 76% 0.00 in
22:05 70.3 °F 63.1 °F 30.01 in SSW 4.0 mph 9.0 mph 78% 0.00 in
22:10 70.0 °F 62.8 °F 30.02 in SW 1.0 mph 8.0 mph 78% 0.00 in
22:15 69.8 °F 63.0 °F 30.01 in SW 3.0 mph 5.0 mph 79% 0.00 in
22:20 69.6 °F 63.2 °F 30.01 in SW 1.0 mph 5.0 mph 80% 0.00 in
22:25 69.5 °F 63.1 °F 30.01 in SSW 2.0 mph 5.0 mph 80% 0.00 in
22:30 69.4 °F 63.0 °F 30.01 in SW 1.0 mph 6.0 mph 80% 0.00 in
22:35 69.5 °F 62.7 °F 30.01 in Calm   5.0 mph 79% 0.00 in
22:40 69.5 °F 62.3 °F 30.01 in SSW 1.0 mph 5.0 mph 78% 0.00 in
22:45 69.5 °F 62.3 °F 30.02 in WSW 1.0 mph 2.0 mph 78% 0.00 in
22:50 69.5 °F 62.3 °F 30.01 in WSW 1.0 mph 3.0 mph 78% 0.00 in
22:55 69.5 °F 62.3 °F 30.01 in Calm   3.0 mph 78% 0.00 in
23:00 69.4 °F 62.2 °F 30.01 in Calm   3.0 mph 78% 0.00 in
23:05 69.2 °F 61.7 °F 30.00 in SSW 2.0 mph 7.0 mph 77% 0.00 in
23:10 69.3 °F 61.4 °F 30.00 in SSW 2.0 mph 5.0 mph 76% 0.00 in
23:15 69.3 °F 61.0 °F 30.00 in SSW 1.0 mph 5.0 mph 75% 0.00 in
23:20 69.3 °F 61.0 °F 30.00 in SSW 2.0 mph 5.0 mph 75% 0.00 in
23:25 69.3 °F 61.0 °F 29.99 in SSW 2.0 mph 5.0 mph 75% 0.00 in
23:30 69.3 °F 60.7 °F 29.99 in SSW 2.0 mph 6.0 mph 74% 0.00 in
23:35 69.3 °F 60.7 °F 29.99 in SSW 1.0 mph 5.0 mph 74% 0.00 in
23:40 69.3 °F 60.7 °F 29.99 in SSW 2.0 mph 8.0 mph 74% 0.00 in
23:45 69.2 °F 60.6 °F 29.99 in SW 3.0 mph 8.0 mph 74% 0.00 in
23:50 69.2 °F 60.6 °F 29.99 in SW 1.0 mph 4.0 mph 74% 0.00 in
23:55 69.1 °F 60.5 °F 29.99 in SW 1.0 mph 5.0 mph 74% 0.00 in
Buffalo, New York, USA
Compliments of Weather Underground - 2.5 mb